Rock Springs, WY

2:45 AM MDT on July 23, 2014 (GMT -0600)
Rock Springs-Sweetwater (KRKS) Elev 6759 ft | 41.59 °N, 109.05 °W | Change Station
Active Advisory: Fire Weather Warning

Current weather conditions updated 51 minutes ago

Clear
Clear
70 °F
Feels Like 70 °F
N
9
Wind Variable Wind from SSE

Today is forecast to be Warmer than yesterday.

Today
High -- | Low -- °F
--% Chance of Precip.
Yesterday
High -- | Low -- °F
Precip. -- in
6:01 AM 8:42 PM
Waning Crescent, 12% visible
Pressure 30.04 in
Visibility 10.0 miles
Clouds Clear
Dew Point 23 °F
Humidity 17%
Rainfall 0.00 in
Snow Depth Not available.
UV 0 out of 12
Pollen 6.00 out of 12
Air Quality Not available.
Flu Activity Not available.
METAR KRKS 230754Z AUTO 15008KT 10SM CLR 21/M05 A3035 RMK AO2 SLP173 T02111050

More Conditions Fewer Conditions

Pressure 30.04 in
Visibility 10.0 miles
Clouds Clear
Dew Point 23 °F
Humidity 17%
Rainfall 0.00 in
Snow Depth Not available.
UV 0 out of 12
Pollen 6.00 out of 12
Air Quality Not available.
Flu Activity Not available.
METAR KRKS 230754Z AUTO 15008KT 10SM CLR 21/M05 A3035 RMK AO2 SLP173 T02111050

More Conditions Fewer Conditions

10-Day Weather Forecast

Almanac

Astronomy

Jul. 23, 2014 Rise Set
Actual Time 6:01 AM MDT 8:42 PM MDT
Civil Twilight 5:29 AM MDT 9:14 PM MDT
Nautical Twilight 4:48 AM MDT 9:54 PM MDT
Astronomical Twilight 4:02 AM MDT 10:40 PM MDT
Moon 3:23 AM MDT 6:13 PM MDT
Length of Visible Light 15h 45m
Length of Day
14h 40m
Tomorrow will be 1m 48s shorter.
Waning Crescent, 12% of the Moon is Illuminated
Today
Waning Crescent
Jul 26
New
Aug 3
First Quarter
Aug 10
Full
Aug 17
Last Quarter

Today's Extremes

State Highs State Lows

Community

WunderPhotos

Upload Photos

1,736,529 photos uploaded!

Nearby

Snow Depth

Station Depth Elevation
Big Sandy Opening 1 in 9080 ft
Townsend Creek 1 in 8700 ft
Divide Peak 0 in 8860 ft
Battle Mountain 0 in 7440 ft
Hams Fork 0 in 7840 ft

Earthquake Activity

City Distance Mag. Time & Date
No recent earthquake activity has been reported nearby.
Minimum magnitude displayed is 2.5.

Coastal Water Temperatures

Place Temperature
No Stations Reporting

Nearby Weather Stations

Station Location Temp. Dew Point Humidity Wind Precip. Elev Updated Type
MesoWest HALLV1 , Point Of Rocks, WY 52 °F - - North  at  - 0.00 in / hr 6567 ft 1:00 AM MDT MADIS
RAWS SNOW SPRINGS CREEK WY, Rock Springs, WY 68 °F 19 °F 15% South  at  4 mph 0.00 in / hr 7549 ft 1:44 AM MDT MADIS
MesoWest KANDAW , Rock Springs, WY 62 °F - - North  at  - 0.00 in / hr 6211 ft 1:00 AM MDT MADIS
HADS BITTER CREEK 4 NE WY, Rock Springs, WY 54 °F - - North  at  - 0.00 in / hr 6720 ft 2:00 AM MDT MADIS

Show More Stations Show Fewer Stations